createdAt,value
2023-03-27T00:01:05.068Z,3.75
2023-03-27T00:03:32.163Z,4.32
2023-03-27T00:06:09.295Z,4.75
2023-03-27T00:08:36.599Z,4.70
2023-03-27T00:11:04.057Z,3.92
2023-03-27T00:13:31.072Z,3.30
2023-03-27T00:15:58.990Z,3.30
2023-03-27T00:18:26.594Z,4.38
2023-03-27T00:20:54.150Z,3.85
2023-03-27T00:23:21.170Z,3.65
2023-03-27T00:25:49.203Z,3.88
2023-03-27T00:28:17.780Z,3.85
2023-03-27T00:30:45.207Z,3.97
2023-03-27T00:33:16.125Z,4.22
2023-03-27T00:35:47.120Z,5.78
2023-03-27T00:38:14.401Z,5.38
2023-03-27T00:40:42.204Z,4.63
2023-03-27T00:43:32.587Z,4.72
2023-03-27T00:46:20.141Z,3.80
2023-03-27T00:48:48.309Z,3.53
2023-03-27T00:51:15.791Z,3.22
2023-03-27T00:53:42.749Z,4.60
2023-03-27T00:56:09.775Z,3.55
2023-03-27T00:58:45.862Z,3.97
2023-03-27T01:01:14.769Z,3.70
2023-03-27T01:03:42.834Z,3.70
2023-03-27T01:06:10.043Z,4.28
2023-03-27T01:08:36.940Z,3.83
2023-03-27T01:11:09.577Z,4.07
2023-03-27T01:14:19.766Z,3.75
2023-03-27T01:17:20.293Z,4.25
2023-03-27T01:19:47.229Z,3.60
2023-03-27T01:22:57.987Z,4.10
2023-03-27T01:26:14.565Z,3.50
2023-03-27T01:29:07.578Z,4.20
2023-03-27T01:32:02.444Z,4.00
2023-03-27T01:35:08.656Z,3.75
2023-03-27T01:38:13.162Z,3.42
2023-03-27T01:40:47.392Z,3.17
2023-03-27T01:43:23.575Z,3.78
2023-03-27T01:46:07.317Z,3.53
2023-03-27T01:48:44.970Z,3.33
2023-03-27T01:51:40.129Z,2.92
2023-03-27T01:54:26.155Z,3.40
2023-03-27T01:57:01.203Z,2.95
2023-03-27T01:59:28.922Z,2.85
2023-03-27T02:02:07.726Z,2.55
2023-03-27T02:04:48.939Z,2.67
2023-03-27T02:07:20.172Z,3.28
2023-03-27T02:09:50.081Z,2.85
2023-03-27T02:12:24.022Z,2.75
2023-03-27T02:15:23.289Z,2.40
2023-03-27T02:18:01.887Z,2.40
2023-03-27T02:20:28.933Z,2.00
2023-03-27T02:22:55.854Z,2.17
2023-03-27T02:25:33.888Z,2.10
2023-03-27T02:28:31.075Z,1.92
2023-03-27T02:31:34.132Z,1.95
2023-03-27T02:34:25.737Z,2.38
2023-03-27T02:37:06.397Z,2.15
2023-03-27T02:39:47.613Z,2.50
2023-03-27T02:42:28.676Z,1.90
2023-03-27T02:45:16.264Z,2.22
2023-03-27T02:47:50.954Z,1.55
2023-03-27T02:50:47.008Z,1.65
2023-03-27T02:53:14.845Z,1.88
2023-03-27T02:55:45.218Z,1.38
2023-03-27T02:58:16.681Z,1.65
2023-03-27T03:00:44.595Z,2.00
2023-03-27T03:03:38.294Z,1.63
2023-03-27T03:06:05.588Z,1.70
2023-03-27T03:08:34.995Z,1.90
2023-03-27T03:11:07.876Z,1.58
2023-03-27T03:13:34.765Z,1.40
2023-03-27T03:16:01.805Z,1.60
2023-03-27T03:18:28.686Z,1.38
2023-03-27T03:20:55.874Z,1.70
2023-03-27T03:23:23.100Z,1.77
2023-03-27T03:25:50.249Z,2.10
2023-03-27T03:28:17.094Z,1.50
2023-03-27T03:30:46.963Z,1.70
2023-03-27T03:33:13.955Z,1.20
2023-03-27T03:35:41.175Z,1.48
2023-03-27T03:38:08.122Z,0.93
2023-03-27T03:40:35.106Z,1.13
2023-03-27T03:43:01.983Z,1.30
2023-03-27T03:45:28.951Z,1.20
2023-03-27T03:47:55.915Z,1.40
2023-03-27T03:50:22.906Z,1.33
2023-03-27T03:52:49.775Z,1.33
2023-03-27T03:55:16.844Z,1.40
2023-03-27T03:57:46.791Z,1.80
2023-03-27T04:00:14.226Z,1.38
2023-03-27T04:02:41.232Z,1.40
2023-03-27T04:05:10.130Z,1.40
2023-03-27T04:07:37.681Z,1.95
2023-03-27T04:10:05.145Z,1.50
2023-03-27T04:12:32.425Z,2.80
2023-03-27T04:14:59.448Z,2.80
2023-03-27T04:17:26.568Z,1.83
2023-03-27T04:20:05.600Z,1.33
2023-03-27T04:22:32.826Z,1.50
2023-03-27T04:24:59.703Z,1.20
2023-03-27T04:27:26.583Z,1.00
2023-03-27T04:29:53.551Z,1.00
2023-03-27T04:32:20.534Z,1.00
2023-03-27T04:34:47.722Z,1.45
2023-03-27T04:37:14.680Z,0.98
2023-03-27T04:39:41.618Z,1.17
2023-03-27T04:42:09.570Z,1.30
2023-03-27T04:44:36.732Z,3.22
2023-03-27T04:47:06.350Z,4.38
2023-03-27T04:49:34.633Z,2.50
2023-03-27T04:52:01.590Z,1.88
2023-03-27T04:54:28.522Z,1.40
2023-03-27T04:56:55.374Z,2.40
2023-03-27T04:59:22.407Z,3.35
2023-03-27T05:01:49.280Z,2.67
2023-03-27T05:04:16.652Z,1.58
2023-03-27T05:06:43.585Z,1.45
2023-03-27T05:09:10.485Z,1.30
2023-03-27T05:11:37.439Z,1.23
2023-03-27T05:14:04.341Z,1.60
2023-03-27T05:16:31.226Z,2.00
2023-03-27T05:18:58.170Z,3.40
2023-03-27T05:21:25.069Z,3.38
2023-03-27T05:23:52.048Z,1.50
2023-03-27T05:26:18.991Z,1.45
2023-03-27T05:28:45.922Z,1.65
2023-03-27T05:31:12.832Z,1.23
2023-03-27T05:33:39.728Z,1.50
2023-03-27T05:36:07.255Z,1.52
2023-03-27T05:38:34.126Z,2.00
2023-03-27T05:41:01.014Z,2.70
2023-03-27T05:43:28.093Z,3.58
2023-03-27T05:45:55.035Z,2.83
2023-03-27T05:48:21.965Z,2.30
2023-03-27T05:50:48.967Z,1.73
2023-03-27T05:53:15.950Z,2.33
2023-03-27T05:55:42.912Z,2.70
2023-03-27T05:58:10.284Z,2.65
2023-03-27T06:00:37.936Z,2.03
2023-03-27T06:03:04.982Z,1.75
2023-03-27T06:05:32.130Z,3.03
2023-03-27T06:07:59.099Z,3.20
2023-03-27T06:10:29.869Z,3.08
2023-03-27T06:13:08.682Z,4.65
2023-03-27T06:15:39.184Z,5.88
2023-03-27T06:18:06.281Z,7.38
2023-03-27T06:20:33.233Z,5.50
2023-03-27T06:23:00.672Z,5.03
2023-03-27T06:25:28.886Z,4.30
2023-03-27T06:27:55.850Z,3.60
2023-03-27T06:30:24.015Z,2.22
2023-03-27T06:32:53.237Z,2.25
2023-03-27T06:35:21.047Z,2.80
2023-03-27T06:37:50.826Z,2.20
2023-03-27T06:40:23.320Z,2.03
2023-03-27T06:43:02.095Z,2.42
2023-03-27T06:45:43.135Z,2.22
2023-03-27T06:48:18.797Z,1.95
2023-03-27T06:50:49.052Z,1.98
2023-03-27T06:53:25.907Z,1.88
2023-03-27T06:55:54.018Z,3.10
2023-03-27T06:58:20.948Z,1.70
2023-03-27T07:00:48.070Z,1.60
2023-03-27T07:03:14.938Z,1.40
2023-03-27T07:05:41.928Z,1.80
2023-03-27T07:10:44.037Z,1.83
2023-03-27T07:13:10.975Z,1.80
2023-03-27T07:15:37.856Z,1.50
2023-03-27T07:18:06.413Z,1.58
2023-03-27T07:20:34.013Z,1.13
2023-03-27T07:23:01.350Z,1.23
2023-03-27T07:25:30.453Z,1.35
2023-03-27T07:28:00.649Z,0.98
2023-03-27T07:30:28.188Z,0.70
2023-03-27T07:32:55.196Z,0.60
2023-03-27T07:35:22.235Z,0.98
2023-03-27T07:37:49.177Z,0.50
2023-03-27T07:40:17.307Z,0.30
2023-03-27T07:42:45.645Z,0.13
2023-03-27T07:45:13.443Z,0.28
2023-03-27T07:47:42.100Z,1.58
2023-03-27T07:50:13.108Z,1.42
2023-03-27T07:52:40.218Z,0.30
2023-03-27T07:55:08.211Z,2.42
2023-03-27T07:57:59.307Z,0.30
2023-03-27T08:00:28.197Z,0.50
2023-03-27T08:03:08.351Z,0.20
2023-03-27T08:05:36.472Z,0.30
2023-03-27T08:08:03.978Z,1.38
2023-03-27T08:10:30.953Z,0.10
2023-03-27T08:12:57.896Z,0.17
2023-03-27T08:15:25.325Z,0.17
2023-03-27T08:17:52.818Z,0.20
2023-03-27T08:20:20.628Z,0.10
2023-03-27T08:22:47.526Z,0.10
2023-03-27T08:25:14.460Z,0.10
2023-03-27T08:27:41.405Z,0.20
2023-03-27T08:30:09.507Z,0.20
2023-03-27T08:32:36.422Z,0.30
2023-03-27T08:35:05.174Z,0.20
2023-03-27T08:37:32.160Z,0.10
2023-03-27T08:39:59.104Z,0.10
2023-03-27T08:42:36.450Z,0.10
2023-03-27T08:45:19.705Z,0.10
2023-03-27T08:47:52.105Z,0.10
2023-03-27T08:50:34.287Z,0.10
2023-03-27T08:53:01.474Z,0.30
2023-03-27T08:55:42.013Z,0.10
2023-03-27T08:58:20.163Z,0.10
2023-03-27T09:01:02.819Z,0.10
2023-03-27T09:04:13.281Z,0.30
2023-03-27T09:07:01.390Z,0.40
2023-03-27T09:10:05.664Z,0.15
2023-03-27T09:13:06.281Z,0.10
2023-03-27T09:15:36.969Z,0.20
2023-03-27T09:18:35.639Z,0.10
2023-03-27T09:21:36.046Z,0.10
2023-03-27T09:24:06.411Z,0.25
2023-03-27T09:26:35.877Z,0.10
2023-03-27T09:29:19.974Z,0.10
2023-03-27T09:31:50.946Z,0.30
2023-03-27T09:34:30.809Z,0.10
2023-03-27T09:37:00.894Z,0.10
2023-03-27T09:39:33.215Z,0.00
2023-03-27T09:42:22.598Z,0.20
2023-03-27T09:44:56.281Z,0.00
2023-03-27T09:48:04.725Z,0.13
2023-03-27T09:50:45.726Z,0.10
2023-03-27T09:53:17.929Z,0.10
2023-03-27T09:55:59.297Z,0.10
2023-03-27T09:58:26.872Z,0.20
2023-03-27T10:01:16.872Z,0.20
2023-03-27T10:03:51.450Z,0.30
2023-03-27T10:06:36.798Z,0.73
2023-03-27T10:09:19.529Z,0.30
2023-03-27T10:11:46.525Z,0.20
2023-03-27T10:14:16.614Z,0.10
2023-03-27T10:16:43.592Z,0.20
2023-03-27T10:19:29.586Z,0.25
2023-03-27T10:21:56.756Z,0.15
2023-03-27T10:24:35.597Z,0.10
2023-03-27T10:27:07.930Z,0.08
2023-03-27T10:29:36.768Z,0.40
2023-03-27T10:32:05.676Z,0.20
2023-03-27T10:34:58.966Z,0.10
2023-03-27T10:37:31.251Z,0.00
2023-03-27T10:40:01.112Z,0.10
2023-03-27T10:42:30.061Z,0.20
2023-03-27T10:44:57.088Z,0.10
2023-03-27T10:47:30.494Z,0.60
2023-03-27T10:50:14.987Z,0.10
2023-03-27T10:53:06.046Z,0.10
2023-03-27T10:55:37.908Z,0.50
2023-03-27T10:58:22.941Z,0.10
2023-03-27T11:01:08.728Z,0.10
2023-03-27T11:03:55.061Z,0.10
2023-03-27T11:06:22.373Z,0.17
2023-03-27T11:09:25.964Z,0.17
2023-03-27T11:11:58.257Z,0.10
2023-03-27T11:14:32.178Z,0.10
2023-03-27T11:17:00.541Z,0.00
2023-03-27T11:19:53.330Z,0.63
2023-03-27T11:22:45.952Z,0.10
2023-03-27T11:25:42.145Z,0.10
2023-03-27T11:28:56.483Z,0.55
2023-03-27T11:31:42.802Z,0.20
2023-03-27T11:35:02.027Z,0.10
2023-03-27T11:37:39.456Z,0.10
2023-03-27T11:40:24.546Z,0.20
2023-03-27T11:42:51.496Z,0.28
2023-03-27T11:45:23.231Z,0.10
2023-03-27T11:48:11.381Z,0.10
2023-03-27T11:50:53.357Z,0.00
2023-03-27T11:53:29.831Z,0.10
2023-03-27T11:56:09.559Z,0.10
2023-03-27T11:59:37.534Z,0.03
2023-03-27T12:02:28.864Z,0.70
2023-03-27T12:05:20.160Z,0.10
2023-03-27T12:08:22.642Z,0.80
2023-03-27T12:10:49.884Z,1.15
2023-03-27T12:14:01.056Z,0.80
2023-03-27T12:16:36.955Z,1.00
2023-03-27T12:19:38.230Z,0.73
2023-03-27T12:22:22.858Z,1.48
2023-03-27T12:25:28.708Z,1.20
2023-03-27T12:28:41.141Z,1.67
2023-03-27T12:31:48.073Z,2.58
2023-03-27T12:34:52.159Z,2.13
2023-03-27T12:40:00.885Z,1.55
2023-03-27T12:42:48.987Z,2.65
2023-03-27T12:45:23.241Z,1.50
2023-03-27T12:48:09.114Z,1.42
2023-03-27T12:50:45.045Z,1.10
2023-03-27T12:53:27.186Z,1.10
2023-03-27T12:56:19.015Z,2.30
2023-03-27T12:58:47.914Z,1.02
2023-03-27T13:01:51.805Z,0.68
2023-03-27T13:05:27.499Z,0.63
2023-03-27T13:08:18.566Z,0.50
2023-03-27T13:11:09.928Z,0.68
2023-03-27T13:14:10.693Z,1.50
2023-03-27T13:17:11.014Z,0.50
2023-03-27T13:19:53.447Z,1.23
2023-03-27T13:22:52.984Z,0.57
2023-03-27T13:25:34.646Z,0.95
2023-03-27T13:28:37.122Z,1.00
2023-03-27T13:31:06.703Z,0.65
2023-03-27T13:33:33.553Z,0.35
2023-03-27T13:36:21.670Z,3.50
2023-03-27T13:38:51.398Z,1.90
2023-03-27T13:41:40.053Z,2.40
2023-03-27T13:44:26.534Z,2.50
2023-03-27T13:47:02.795Z,1.30
2023-03-27T13:50:14.735Z,0.30
2023-03-27T13:53:12.219Z,0.90
2023-03-27T13:55:54.246Z,1.88
2023-03-27T13:59:19.710Z,1.27
2023-03-27T14:02:06.560Z,2.63
2023-03-27T14:04:52.393Z,2.15
2023-03-27T14:07:54.392Z,1.30
2023-03-27T14:11:03.878Z,1.10
2023-03-27T14:13:54.023Z,2.20
2023-03-27T14:16:29.790Z,1.60
2023-03-27T14:19:35.142Z,4.10
2023-03-27T14:22:45.131Z,1.83
2023-03-27T14:25:21.300Z,2.40
2023-03-27T14:27:54.325Z,2.15
2023-03-27T14:30:24.048Z,2.05
2023-03-27T14:32:50.984Z,3.10
2023-03-27T14:35:40.317Z,3.40
2023-03-27T14:38:28.973Z,1.05
2023-03-27T14:41:06.608Z,0.60
2023-03-27T14:43:33.853Z,2.05
2023-03-27T14:46:03.907Z,1.52
2023-03-27T14:48:38.983Z,1.10
2023-03-27T14:51:17.602Z,0.10
2023-03-27T14:53:45.287Z,1.08
2023-03-27T14:56:41.433Z,0.45
2023-03-27T14:59:25.237Z,0.80
2023-03-27T15:01:54.356Z,2.13
2023-03-27T15:04:21.285Z,0.43
2023-03-27T15:06:48.185Z,0.25
2023-03-27T15:09:17.312Z,0.40
2023-03-27T15:11:48.204Z,0.82
2023-03-27T15:14:24.216Z,0.60
2023-03-27T15:16:57.260Z,0.90
2023-03-27T15:19:36.469Z,2.35
2023-03-27T15:22:06.796Z,0.60
2023-03-27T15:24:40.719Z,1.10
2023-03-27T15:27:13.153Z,0.50
2023-03-27T15:29:46.913Z,1.90
2023-03-27T15:32:15.727Z,0.70
2023-03-27T15:34:44.836Z,0.60
2023-03-27T15:37:19.279Z,1.55
2023-03-27T15:40:23.001Z,1.48
2023-03-27T15:42:54.498Z,2.70
2023-03-27T15:45:36.873Z,1.40
2023-03-27T15:48:18.085Z,0.30
2023-03-27T15:51:05.721Z,0.25
2023-03-27T15:53:40.264Z,1.17
2023-03-27T15:56:41.882Z,1.65
2023-03-27T15:59:11.078Z,1.00
2023-03-27T16:01:40.379Z,0.40
2023-03-27T16:04:15.214Z,0.90
2023-03-27T16:06:47.551Z,0.93
2023-03-27T16:09:32.467Z,0.20
2023-03-27T16:11:59.647Z,0.68
2023-03-27T16:14:44.075Z,0.20
2023-03-27T16:17:14.084Z,1.17
2023-03-27T16:20:02.768Z,0.50
2023-03-27T16:22:36.691Z,0.75
2023-03-27T16:25:11.367Z,0.20
2023-03-27T16:27:49.641Z,0.28
2023-03-27T16:30:37.060Z,0.20
2023-03-27T16:33:15.339Z,0.30
2023-03-27T16:35:42.880Z,0.20
2023-03-27T16:38:09.829Z,0.20
2023-03-27T16:40:36.738Z,0.63
2023-03-27T16:43:03.630Z,0.88
2023-03-27T16:45:30.553Z,0.40
2023-03-27T16:47:57.487Z,0.50
2023-03-27T16:50:25.612Z,0.30
2023-03-27T16:52:52.799Z,0.30
2023-03-27T16:55:19.836Z,0.40
2023-03-27T16:57:46.897Z,0.30
2023-03-27T17:00:15.276Z,0.30
2023-03-27T17:02:42.279Z,0.30
2023-03-27T17:05:09.669Z,0.30
2023-03-27T17:07:36.603Z,0.30
2023-03-27T17:10:04.071Z,0.30
2023-03-27T17:12:30.930Z,0.40
2023-03-27T17:14:57.848Z,0.55
2023-03-27T17:17:24.744Z,0.60
2023-03-27T17:19:51.669Z,0.40
2023-03-27T17:22:18.626Z,0.30
2023-03-27T17:24:56.209Z,0.40
2023-03-27T17:27:25.042Z,0.45
2023-03-27T17:29:51.990Z,0.60
2023-03-27T17:32:18.895Z,0.30
2023-03-27T17:34:45.841Z,0.30
2023-03-27T17:37:12.772Z,0.40
2023-03-27T17:39:39.806Z,0.35
2023-03-27T17:42:06.870Z,0.20
2023-03-27T17:44:33.847Z,0.30
2023-03-27T17:47:00.997Z,0.30
2023-03-27T17:49:28.100Z,0.40
2023-03-27T17:51:55.075Z,0.50
2023-03-27T17:54:21.988Z,0.40
2023-03-27T17:56:49.055Z,0.47
2023-03-27T17:59:16.038Z,0.65
2023-03-27T18:01:45.310Z,0.30
2023-03-27T18:04:12.432Z,0.40
2023-03-27T18:06:39.401Z,0.60
2023-03-27T18:09:06.470Z,0.70
2023-03-27T18:11:33.402Z,0.50
2023-03-27T18:14:00.384Z,0.70
2023-03-27T18:16:27.486Z,0.52
2023-03-27T18:18:54.489Z,0.70
2023-03-27T18:21:21.811Z,1.10
2023-03-27T18:23:48.825Z,0.75
2023-03-27T18:26:16.016Z,1.00
2023-03-27T18:28:43.014Z,1.17
2023-03-27T18:31:11.430Z,0.73
2023-03-27T18:33:38.526Z,0.80
2023-03-27T18:36:06.257Z,0.88
2023-03-27T18:38:33.277Z,0.68
2023-03-27T18:41:00.397Z,0.55
2023-03-27T18:43:27.619Z,0.60
2023-03-27T18:45:59.282Z,0.80
2023-03-27T18:48:26.840Z,0.60
2023-03-27T18:51:01.962Z,0.60
2023-03-27T18:53:29.303Z,0.95
2023-03-27T18:55:56.489Z,0.80
2023-03-27T18:58:23.636Z,0.43
2023-03-27T19:00:51.249Z,0.60
2023-03-27T19:03:20.090Z,0.50
2023-03-27T19:05:50.648Z,0.43
2023-03-27T19:08:19.022Z,0.30
2023-03-27T19:10:46.039Z,0.40
2023-03-27T19:13:13.094Z,0.40
2023-03-27T19:15:40.470Z,0.63
2023-03-27T19:18:07.560Z,0.35
2023-03-27T19:20:34.607Z,0.47
2023-03-27T19:23:01.649Z,0.60
2023-03-27T19:25:28.686Z,0.60
2023-03-27T19:27:56.604Z,0.70
2023-03-27T19:30:24.033Z,0.60
2023-03-27T19:32:51.292Z,0.70
2023-03-27T19:35:18.433Z,0.60
2023-03-27T19:37:45.652Z,0.60
2023-03-27T19:40:13.601Z,0.47
2023-03-27T19:42:40.581Z,0.50
2023-03-27T19:45:08.389Z,1.00
2023-03-27T19:47:35.788Z,0.60
2023-03-27T19:50:03.056Z,0.60
2023-03-27T19:52:30.324Z,0.50
2023-03-27T19:54:57.322Z,0.35
2023-03-27T19:57:24.462Z,0.47
2023-03-27T19:59:51.544Z,0.30
2023-03-27T20:02:18.589Z,0.32
2023-03-27T20:04:45.585Z,0.20
2023-03-27T20:07:12.515Z,0.40
2023-03-27T20:09:39.472Z,0.35
2023-03-27T20:12:07.292Z,0.98
2023-03-27T20:14:34.352Z,0.30
2023-03-27T20:17:01.339Z,0.57
2023-03-27T20:19:28.396Z,0.70
2023-03-27T20:21:55.444Z,0.57
2023-03-27T20:24:22.460Z,0.50
2023-03-27T20:26:50.940Z,0.60
2023-03-27T20:29:20.416Z,0.52
2023-03-27T20:31:47.784Z,0.50
2023-03-27T20:34:14.996Z,0.40
2023-03-27T20:36:41.965Z,0.50
2023-03-27T20:39:09.085Z,0.70
2023-03-27T20:41:36.432Z,0.50
2023-03-27T20:44:03.573Z,0.80
2023-03-27T20:46:30.731Z,0.60
2023-03-27T20:48:57.862Z,0.70
2023-03-27T20:51:25.116Z,1.52
2023-03-27T20:53:52.277Z,1.48
2023-03-27T20:56:19.261Z,1.40
2023-03-27T20:58:46.222Z,1.83
2023-03-27T21:01:13.320Z,1.30
2023-03-27T21:03:41.926Z,1.13
2023-03-27T21:06:19.849Z,1.17
2023-03-27T21:08:47.390Z,0.98
2023-03-27T21:11:14.568Z,1.10
2023-03-27T21:13:41.599Z,1.33
2023-03-27T21:16:08.874Z,1.33
2023-03-27T21:18:35.930Z,1.20
2023-03-27T21:21:03.015Z,1.10
2023-03-27T21:23:30.059Z,0.82
2023-03-27T21:25:57.800Z,0.93
2023-03-27T21:28:24.931Z,2.22
2023-03-27T21:30:52.145Z,2.22
2023-03-27T21:33:19.125Z,1.95
2023-03-27T21:35:47.271Z,1.67
2023-03-27T21:38:15.121Z,0.60
2023-03-27T21:40:42.155Z,0.90
2023-03-27T21:43:09.172Z,0.95
2023-03-27T21:45:36.599Z,1.70
2023-03-27T21:48:03.911Z,1.50
2023-03-27T21:50:31.082Z,1.27
2023-03-27T21:52:58.171Z,1.95
2023-03-27T21:55:25.063Z,1.20
2023-03-27T21:57:52.015Z,1.23
2023-03-27T22:00:19.510Z,0.90
2023-03-27T22:02:46.659Z,1.88
2023-03-27T22:05:13.714Z,2.25
2023-03-27T22:07:40.701Z,1.38
2023-03-27T22:10:08.225Z,0.60
2023-03-27T22:12:36.540Z,0.85
2023-03-27T22:15:04.555Z,0.88
2023-03-27T22:17:31.588Z,2.97
2023-03-27T22:19:58.600Z,3.65
2023-03-27T22:22:25.607Z,4.88
2023-03-27T22:24:52.579Z,1.23
2023-03-27T22:27:21.625Z,1.58
2023-03-27T22:29:48.592Z,3.70
2023-03-27T22:32:15.619Z,2.65
2023-03-27T22:34:42.581Z,6.82
2023-03-27T22:37:09.520Z,4.55
2023-03-27T22:39:36.507Z,2.67
2023-03-27T22:42:03.588Z,2.50
2023-03-27T22:44:30.704Z,1.75
2023-03-27T22:46:58.947Z,1.45
2023-03-27T22:49:26.446Z,1.25
2023-03-27T22:51:53.465Z,1.20
2023-03-27T22:54:20.511Z,1.00
2023-03-27T22:56:47.628Z,1.73
2023-03-27T22:59:14.877Z,3.17
2023-03-27T23:01:41.960Z,2.75
2023-03-27T23:04:09.099Z,6.07
2023-03-27T23:06:36.123Z,2.05
2023-03-27T23:09:03.425Z,1.02
2023-03-27T23:11:30.438Z,1.27
2023-03-27T23:13:57.384Z,1.70
2023-03-27T23:16:24.481Z,1.50
2023-03-27T23:18:51.416Z,0.80
2023-03-27T23:21:18.637Z,0.77
2023-03-27T23:23:45.655Z,0.70
2023-03-27T23:26:12.682Z,0.65
2023-03-27T23:28:41.278Z,0.55
2023-03-27T23:31:15.591Z,0.77
2023-03-27T23:33:45.099Z,0.95
2023-03-27T23:36:23.205Z,0.70
2023-03-27T23:38:50.796Z,1.08
2023-03-27T23:41:17.962Z,7.00
2023-03-27T23:43:44.990Z,3.28
2023-03-27T23:46:12.224Z,1.25
2023-03-27T23:48:40.641Z,0.70
2023-03-27T23:51:07.946Z,0.65
2023-03-27T23:53:35.003Z,0.50
2023-03-27T23:56:02.304Z,0.68
2023-03-27T23:58:29.948Z,1.40
